Time;durP1;ratioP1;P1;durP2;ratioP2;P2;SDS_P1;SDS_P2;PMS_P1;PMS_P2;Temp;Humidity;BMP_temperature;BMP_pressure;BME280_temperature;BME280_humidity;BME280_pressure;Samples;Min_cycle;Max_cycle;Signal;HPM_P1;HPM_P2
2023/06/13 00:00:44;;;;;;;;;;;;;;;8.90;87.07;99140.72;135477;1279;22506;-59
2023/06/13 00:04:06;;;;;;;23.30;6.00;;;;;;;8.87;88.73;99137.71;135484;1279;22515;-59
2023/06/13 00:07:09;;;;;;;19.30;5.90;;;;;;;8.85;88.78;99134.46;135530;1279;22530;-59
2023/06/13 00:10:11;;;;;;;;;;;;;;;8.77;88.13;99137.31;135546;1279;22505;-59
2023/06/13 00:13:14;;;;;;;22.00;5.90;;;;;;;8.76;88.68;99136.66;135484;1279;22519;-59
2023/06/13 00:16:17;;;;;;;22.50;7.00;;;;;;;8.86;88.13;99137.05;135503;1279;22567;-59
2023/06/13 00:19:19;;;;;;;21.60;7.30;;;;;;;8.86;88.52;99128.67;135447;1279;22537;-59
2023/06/13 00:22:22;;;;;;;;;;;;;;;8.91;88.79;99124.95;135469;1279;24279;-59
2023/06/13 00:25:24;;;;;;;21.60;7.50;;;;;;;8.82;88.65;99117.20;135470;1279;22606;-60
2023/06/13 00:28:27;;;;;;;21.60;7.80;;;;;;;8.77;89.32;99116.58;135482;1279;22534;-59
2023/06/13 00:31:30;;;;;;;24.60;6.90;;;;;;;8.63;89.22;99115.87;135512;1279;22576;-60
2023/06/13 00:34:32;;;;;;;22.90;7.70;;;;;;;8.46;90.74;99111.92;135491;1279;22532;-60
2023/06/13 00:37:36;;;;;;;;;;;;;;;8.22;94.10;99105.03;135499;1279;22541;-60
2023/06/13 00:40:39;;;;;;;20.10;6.10;;;;;;;8.08;92.21;99103.56;135507;1279;24289;-59
2023/06/13 00:43:42;;;;;;;;;;;;;;;8.03;94.61;99100.54;135488;1279;22559;-60
2023/06/13 00:46:44;;;;;;;19.60;5.20;;;;;;;7.89;97.40;99097.48;135500;1279;22533;-59
2023/06/13 00:49:47;;;;;;;;;;;;;;;7.90;96.59;99093.26;135499;1279;22626;-59
2023/06/13 00:52:49;;;;;;;20.70;5.90;;;;;;;7.95;96.26;99087.61;135495;1279;25414;-59
2023/06/13 00:55:52;;;;;;;;;;;;;;;7.96;96.10;99087.07;135511;1279;22524;-60
2023/06/13 00:58:55;;;;;;;23.20;7.50;;;;;;;7.98;95.98;99083.66;135484;1279;22530;-59
2023/06/13 01:01:57;;;;;;;20.70;6.90;;;;;;;8.06;94.94;99080.50;135493;1279;22550;-60
2023/06/13 01:05:00;;;;;;;;;;;;;;;8.14;93.19;99078.41;135504;1280;22538;-60
2023/06/13 01:08:03;;;;;;;23.70;6.80;;;;;;;8.09;91.40;99074.11;135528;1279;22537;-59
2023/06/13 01:11:05;;;;;;;;;;;;;;;7.99;92.60;99073.34;135562;1280;22504;-59
2023/06/13 01:14:08;;;;;;;23.60;7.30;;;;;;;7.88;94.30;99072.27;135479;1279;22638;-60
2023/06/13 01:17:11;;;;;;;22.50;6.80;;;;;;;7.78;95.18;99068.89;135496;1279;22531;-59
2023/06/13 01:20:16;;;;;;;;;;;;;;;7.75;95.13;99064.49;135503;1280;23390;-60
2023/06/13 01:23:18;;;;;;;24.40;7.30;;;;;;;7.70;95.88;99059.35;135534;1279;24152;-59
2023/06/13 01:26:21;;;;;;;21.60;7.00;;;;;;;7.75;94.57;99058.96;135490;1279;22537;-60
2023/06/13 01:29:23;;;;;;;;;;;;;;;7.75;94.30;99059.81;135484;1279;26628;-59
2023/06/13 01:32:26;;;;;;;21.50;6.70;;;;;;;7.68;94.34;99059.60;135483;1279;22538;-59
2023/06/13 01:35:28;;;;;;;;;;;;;;;7.62;94.46;99055.19;135492;1279;22512;-59
2023/06/13 01:38:31;;;;;;;18.20;6.40;;;;;;;7.67;95.21;99052.86;135433;1279;22532;-59
2023/06/13 01:41:33;;;;;;;19.50;6.30;;;;;;;7.71;95.73;99052.36;135538;1279;22770;-59
2023/06/13 01:44:36;;;;;;;;;;;;;;;7.63;94.04;99053.94;135526;1280;22513;-59
2023/06/13 01:47:38;;;;;;;22.00;5.80;;;;;;;7.53;94.08;99048.80;135508;1280;24366;-59
2023/06/13 01:50:41;;;;;;;31.70;5.10;;;;;;;7.35;94.42;99039.67;135512;1279;22531;-59
2023/06/13 01:53:44;;;;;;;17.40;4.30;;;;;;;7.19;94.26;99041.61;135523;1258;24217;-58
2023/06/13 01:56:46;;;;;;;19.10;5.20;;;;;;;7.14;96.67;99036.94;135539;1273;22526;-59
2023/06/13 01:59:51;;;;;;;18.10;3.90;;;;;;;7.10;96.63;99033.98;135505;1280;22547;-59
2023/06/13 02:02:53;;;;;;;21.90;6.60;;;;;;;7.10;95.02;99033.65;135541;1279;22558;-59
2023/06/13 02:05:56;;;;;;;19.40;6.30;;;;;;;7.07;97.57;99032.22;135503;1279;22545;-59
2023/06/13 02:09:01;;;;;;;23.80;5.30;;;;;;;7.15;98.95;99028.02;135526;1279;22544;-59
2023/06/13 02:12:04;;;;;;;22.90;5.60;;;;;;;7.13;98.69;99024.61;135529;1279;24275;-59
2023/06/13 02:15:08;;;;;;;16.00;5.40;;;;;;;7.12;97.05;99024.50;135508;1279;22527;-59
2023/06/13 02:18:11;;;;;;;18.70;5.80;;;;;;;7.07;96.20;99026.45;135460;1279;22560;-59
2023/06/13 02:21:13;;;;;;;19.20;5.20;;;;;;;6.99;96.37;99030.30;135510;1271;22527;-59
2023/06/13 02:24:16;;;;;;;;;;;;;;;6.89;97.47;99026.51;135504;1279;22623;-59
2023/06/13 02:27:18;;;;;;;17.30;5.30;;;;;;;6.90;96.62;99026.67;135516;1279;22534;-59
2023/06/13 02:30:21;;;;;;;18.40;5.60;;;;;;;6.74;96.95;99028.20;135513;1279;22522;-59
2023/06/13 02:33:23;;;;;;;17.00;5.20;;;;;;;6.53;94.86;99031.30;135536;1279;22542;-59
2023/06/13 02:36:25;;;;;;;17.30;5.70;;;;;;;6.53;96.36;99028.20;135513;1279;23884;-59
2023/06/13 02:39:28;;;;;;;17.80;5.70;;;;;;;6.47;96.96;99029.16;135512;1279;22571;-59
2023/06/13 02:42:31;;;;;;;19.50;6.10;;;;;;;6.40;97.68;99025.25;135541;1279;22541;-59
2023/06/13 02:45:33;;;;;;;17.10;5.60;;;;;;;6.47;97.43;99027.40;135524;1279;22612;-58
2023/06/13 02:48:35;;;;;;;22.70;6.10;;;;;;;6.57;97.34;99033.26;135485;1279;24239;-59
2023/06/13 02:51:38;;;;;;;18.60;5.70;;;;;;;6.52;97.41;99032.58;135528;1279;22557;-58
2023/06/13 02:54:40;;;;;;;18.40;5.90;;;;;;;6.57;97.93;99036.02;135500;1279;22582;-58
2023/06/13 02:57:43;;;;;;;21.20;5.80;;;;;;;6.73;98.57;99033.28;135492;1279;22520;-59
2023/06/13 03:00:46;;;;;;;19.90;6.80;;;;;;;6.96;97.53;99033.03;135482;1279;22546;-58
2023/06/13 03:03:48;;;;;;;22.40;7.00;;;;;;;7.03;97.47;99025.77;135494;1279;22592;-58
2023/06/13 03:06:51;;;;;;;21.10;7.50;;;;;;;7.15;97.27;99021.58;135503;1279;22541;-59
2023/06/13 03:09:53;;;;;;;22.30;7.20;;;;;;;7.31;96.93;99022.80;135470;1279;22550;-59
2023/06/13 03:12:56;;;;;;;23.60;7.40;;;;;;;7.41;96.89;99019.04;135514;1279;22540;-59
2023/06/13 03:16:01;;;;;;;18.50;6.50;;;;;;;7.60;96.66;99021.70;135490;1279;22554;-59
2023/06/13 03:19:03;;;;;;;22.20;7.50;;;;;;;7.72;96.65;99025.16;135477;1279;22479;-60
2023/06/13 03:22:06;;;;;;;20.40;6.60;;;;;;;7.83;95.31;99025.86;135468;1279;22536;-59
2023/06/13 03:25:08;;;;;;;;;;;;;;;7.96;95.07;99028.04;135545;1279;22610;-59
2023/06/13 03:28:11;;;;;;;19.70;7.30;;;;;;;8.16;94.79;99027.28;135495;1279;22542;-60
2023/06/13 03:31:14;;;;;;;22.20;8.10;;;;;;;8.26;94.39;99027.67;135534;1279;24397;-60
2023/06/13 03:34:17;;;;;;;22.40;7.50;;;;;;;8.28;94.19;99032.78;135516;1278;24390;-59
2023/06/13 03:37:19;;;;;;;;;;;;;;;8.39;94.12;99028.79;135532;1279;22521;-59
2023/06/13 03:40:22;;;;;;;24.00;9.70;;;;;;;8.42;93.92;99032.80;135473;1279;24274;-59
2023/06/13 03:43:25;;;;;;;;;;;;;;;8.46;94.72;99033.17;135510;1269;22742;-59
2023/06/13 03:46:27;;;;;;;22.90;8.70;;;;;;;8.55;95.15;99036.23;135531;1279;24221;-60
2023/06/13 03:49:30;;;;;;;21.60;8.80;;;;;;;8.72;94.87;99040.46;135533;1279;22547;-60
2023/06/13 03:52:32;;;;;;;20.30;7.30;;;;;;;8.94;94.39;99038.11;135548;1279;22531;-60
2023/06/13 03:55:35;;;;;;;20.70;7.10;;;;;;;9.18;94.70;99037.93;135480;1279;22596;-60
2023/06/13 03:58:37;;;;;;;19.30;6.20;;;;;;;9.43;95.33;99033.85;135506;1280;24059;-60
2023/06/13 04:01:41;;;;;;;18.60;6.30;;;;;;;9.60;95.72;99034.50;135476;1279;22542;-59
2023/06/13 04:04:46;;;;;;;18.50;6.10;;;;;;;9.83;96.26;99033.27;135502;1279;24324;-60
2023/06/13 04:07:48;;;;;;;17.10;5.20;;;;;;;10.18;97.20;99028.91;135495;1279;22532;-60
2023/06/13 04:10:51;;;;;;;;;;;;;;;10.56;97.72;99033.27;135486;1279;22504;-60
2023/06/13 04:13:53;;;;;;;17.50;5.20;;;;;;;10.89;96.43;99031.70;135503;1279;22538;-60
2023/06/13 04:16:57;;;;;;;;;;;;;;;11.18;95.58;99037.54;135502;1279;22613;-60
2023/06/13 04:19:59;;;;;;;15.80;4.60;;;;;;;11.32;95.38;99043.15;135500;1279;22554;-60
2023/06/13 04:23:02;;;;;;;16.60;5.20;;;;;;;11.45;94.52;99043.23;135534;1280;22536;-60
2023/06/13 04:26:05;;;;;;;18.70;5.90;;;;;;;11.59;94.90;99045.01;135507;1280;22606;-60
2023/06/13 04:29:09;;;;;;;19.50;5.10;;;;;;;11.79;94.27;99043.09;135482;1279;22527;-60
2023/06/13 04:32:17;;;;;;;16.90;4.90;;;;;;;12.07;93.91;99044.56;135496;1280;22559;-60
2023/06/13 04:35:21;;;;;;;13.90;4.60;;;;;;;12.33;93.22;99050.24;135529;1280;22536;-60
2023/06/13 04:38:24;;;;;;;15.50;4.40;;;;;;;12.62;93.06;99048.16;135530;1279;22546;-60
2023/06/13 04:41:26;;;;;;;15.50;3.90;;;;;;;12.91;91.63;99044.33;135460;1280;22530;-60
2023/06/13 04:44:29;;;;;;;;;;;;;;;13.18;90.14;99043.38;135492;1280;22510;-60
2023/06/13 04:47:33;;;;;;;12.90;3.90;;;;;;;13.42;88.05;99036.16;135505;1279;22778;-60
2023/06/13 04:50:37;;;;;;;15.50;4.20;;;;;;;13.63;86.87;99034.19;135512;1279;22571;-60
2023/06/13 04:53:39;;;;;;;14.70;3.80;;;;;;;13.90;87.04;99033.48;135532;1279;22544;-60
2023/06/13 04:56:43;;;;;;;15.90;4.20;;;;;;;14.12;85.97;99035.66;135512;1279;22533;-60
2023/06/13 04:59:46;;;;;;;13.00;3.80;;;;;;;14.43;85.84;99032.90;135503;1279;22535;-61
2023/06/13 05:02:50;;;;;;;10.30;3.30;;;;;;;14.73;83.79;99033.34;135488;1279;22537;-60
2023/06/13 05:05:53;;;;;;;11.50;3.30;;;;;;;14.95;82.61;99031.69;135528;1280;22604;-61
2023/06/13 05:08:55;;;;;;;;;;;;;;;15.21;81.63;99032.31;135498;1280;22709;-61
2023/06/13 05:11:58;;;;;;;12.00;3.60;;;;;;;15.45;80.47;99025.39;135515;1280;22535;-60
2023/06/13 05:15:00;;;;;;;12.20;3.80;;;;;;;15.79;79.55;99032.63;135366;1280;149842;-61
2023/06/13 05:18:06;;;;;;;;;;;;;;;15.94;77.00;99032.66;135476;1280;22516;-61
2023/06/13 05:21:09;;;;;;;11.60;3.50;;;;;;;16.09;78.72;99025.83;135499;1280;22517;-60
2023/06/13 05:24:11;;;;;;;15.00;3.80;;;;;;;16.30;77.66;99027.87;135448;1280;22526;-60
2023/06/13 05:27:14;;;;;;;;;;;;;;;16.40;76.62;99027.19;135430;1280;25231;-61
2023/06/13 05:30:16;;;;;;;12.20;3.70;;;;;;;16.22;75.23;99027.10;135505;1270;22535;-61
2023/06/13 05:33:18;;;;;;;;;;;;;;;16.20;76.62;99027.45;135531;1280;24288;-61
2023/06/13 05:36:22;;;;;;;;;;;;;;;16.18;75.07;99032.54;135521;1280;23673;-61
2023/06/13 05:39:24;;;;;;;;;;;;;;;15.99;74.49;99029.60;135509;1264;24385;-60
2023/06/13 05:42:26;;;;;;;11.30;3.40;;;;;;;15.84;75.36;99032.29;135504;1280;22534;-61
2023/06/13 05:45:29;;;;;;;;;;;;;;;15.87;75.88;99031.34;135496;1280;22624;-61
2023/06/13 05:48:31;;;;;;;11.20;3.40;;;;;;;15.90;74.69;99032.09;135477;1280;25450;-60
2023/06/13 05:51:34;;;;;;;;;;;;;;;15.89;74.74;99029.17;135457;1280;22508;-60
2023/06/13 05:54:36;;;;;;;13.90;3.50;;;;;;;15.94;75.20;99029.67;135461;1279;22530;-60
2023/06/13 05:57:39;;;;;;;;;;;;;;;16.15;75.02;99032.45;135461;1280;22544;-61
2023/06/13 06:00:42;;;;;;;10.50;3.10;;;;;;;16.29;74.28;99036.79;135424;1279;22529;-60
2023/06/13 06:03:46;;;;;;;12.90;3.80;;;;;;;16.16;71.24;99036.08;135483;1279;22523;-60
2023/06/13 06:06:49;;;;;;;12.10;4.00;;;;;;;15.86;71.67;99035.02;135462;1279;22545;-61
2023/06/13 06:09:51;;;;;;;14.70;4.20;;;;;;;15.68;71.46;99035.77;135459;1279;22550;-61
2023/06/13 06:12:54;;;;;;;;;;;;;;;15.72;71.37;99034.76;135489;1279;22516;-61
2023/06/13 06:15:56;;;;;;;14.70;4.50;;;;;;;15.71;71.02;99034.31;135440;1263;22656;-62
2023/06/13 06:18:59;;;;;;;14.20;4.10;;;;;;;15.96;72.52;99031.96;135458;1279;22533;-61
2023/06/13 06:22:02;;;;;;;14.40;3.80;;;;;;;16.63;73.91;99030.13;135456;1279;22540;-61
2023/06/13 06:25:05;;;;;;;;;;;;;;;17.43;70.19;99023.02;135462;1279;22656;-62
2023/06/13 06:28:08;;;;;;;10.80;3.50;;;;;;;18.05;69.89;99021.55;135414;1279;22509;-61
2023/06/13 06:31:11;;;;;;;11.40;4.20;;;;;;;18.40;65.80;99020.96;135441;1279;22538;-61
2023/06/13 06:34:13;;;;;;;11.30;3.90;;;;;;;18.37;65.66;99019.63;135489;1279;22775;-61
2023/06/13 06:37:16;;;;;;;10.40;3.70;;;;;;;18.16;61.95;99016.94;135499;1262;22534;-61
2023/06/13 06:40:19;;;;;;;14.30;4.20;;;;;;;17.97;63.00;99018.19;135457;1279;22551;-61
2023/06/13 06:43:21;;;;;;;13.90;3.80;;;;;;;17.90;63.44;99019.16;135453;1279;22677;-62
2023/06/13 06:46:24;;;;;;;12.00;3.20;;;;;;;18.18;63.48;99018.83;135462;1279;24390;-61
2023/06/13 06:49:26;;;;;;;11.50;3.40;;;;;;;18.46;62.47;99017.77;135476;1279;22553;-61
2023/06/13 06:52:29;;;;;;;6.50;2.00;;;;;;;18.55;59.59;99021.39;135450;1279;22556;-62
2023/06/13 06:55:31;;;;;;;12.70;3.20;;;;;;;18.50;60.17;99023.36;135454;1279;22544;-61
2023/06/13 06:58:34;;;;;;;12.20;3.30;;;;;;;18.46;60.37;99020.93;135450;1273;22539;-61
2023/06/13 07:01:36;;;;;;;8.90;2.90;;;;;;;18.45;60.86;99020.88;135503;1274;22552;-61
2023/06/13 07:04:39;;;;;;;12.30;3.50;;;;;;;18.56;59.83;99020.19;135470;1279;22646;-62
2023/06/13 07:07:42;;;;;;;13.70;3.40;;;;;;;18.58;59.61;99018.45;135472;1279;22632;-62
2023/06/13 07:10:44;;;;;;;10.20;3.60;;;;;;;18.70;58.89;99017.33;135462;1279;22526;-62
2023/06/13 07:13:47;;;;;;;11.00;3.60;;;;;;;18.84;57.52;99014.83;135466;1279;22523;-62
2023/06/13 07:16:49;;;;;;;11.30;3.70;;;;;;;18.82;55.89;99009.89;135456;1279;22551;-61
2023/06/13 07:19:51;;;;;;;5.80;2.60;;;;;;;19.01;54.76;99008.14;135465;1279;24211;-62
2023/06/13 07:22:54;;;;;;;5.90;2.20;;;;;;;19.03;54.66;99006.34;135438;1279;22573;-62
2023/06/13 07:25:56;;;;;;;7.20;2.20;;;;;;;18.93;53.43;99006.73;135417;1279;22660;-61
2023/06/13 07:28:59;;;;;;;10.00;2.80;;;;;;;18.89;53.81;99007.27;135435;1279;22544;-62
2023/06/13 07:32:01;;;;;;;8.00;2.60;;;;;;;18.86;52.75;99004.73;135437;1279;22552;-62
2023/06/13 07:35:03;;;;;;;7.90;2.70;;;;;;;18.51;53.96;99000.64;135425;1279;22547;-62
2023/06/13 07:38:06;;;;;;;9.10;2.60;;;;;;;18.37;53.50;99002.48;135457;1279;22545;-61
2023/06/13 07:41:09;;;;;;;7.70;2.50;;;;;;;18.34;53.06;98996.01;135412;1262;22572;-62
2023/06/13 07:44:11;;;;;;;8.00;2.30;;;;;;;18.67;52.80;98988.22;135429;1279;25366;-62
2023/06/13 07:47:13;;;;;;;6.30;2.40;;;;;;;18.94;51.75;98981.66;135454;1280;24279;-62
2023/06/13 07:50:20;;;;;;;6.00;2.40;;;;;;;18.84;52.19;98976.95;135459;1279;22545;-62
2023/06/13 07:53:23;;;;;;;5.80;2.40;;;;;;;18.89;52.96;98979.12;135462;1279;22558;-62
2023/06/13 07:56:25;;;;;;;9.00;3.00;;;;;;;19.06;52.64;98982.15;135447;1280;22517;-62
2023/06/13 07:59:27;;;;;;;11.30;3.10;;;;;;;19.20;52.57;98979.77;135410;1280;25665;-62
2023/06/13 08:02:34;;;;;;;9.00;2.90;;;;;;;19.38;52.46;98981.28;135473;1280;22549;-62
2023/06/13 08:05:36;;;;;;;8.90;3.20;;;;;;;19.47;52.60;98982.45;135449;1279;22523;-62
2023/06/13 08:08:39;;;;;;;8.70;3.20;;;;;;;19.50;52.61;98981.69;135422;1259;22547;-62
2023/06/13 08:11:41;;;;;;;9.20;3.10;;;;;;;19.53;52.85;98980.57;135403;1279;22565;-62
2023/06/13 08:14:43;;;;;;;11.20;3.10;;;;;;;19.57;52.43;98980.66;135359;1280;22528;-62
2023/06/13 08:17:46;;;;;;;8.30;3.20;;;;;;;19.58;52.33;98977.77;135322;1267;22557;-61
2023/06/13 08:20:48;;;;;;;14.20;2.80;;;;;;;19.72;52.32;98979.13;135342;1280;22622;-62
2023/06/13 08:23:51;;;;;;;7.70;3.10;;;;;;;19.83;52.48;98977.65;135349;1279;22663;-62
2023/06/13 08:26:54;;;;;;;12.00;3.60;;;;;;;19.92;51.34;98980.05;135370;1279;23889;-62
2023/06/13 08:29:57;;;;;;;9.90;3.70;;;;;;;19.94;50.34;98980.73;135345;1280;22562;-62
2023/06/13 08:33:02;;;;;;;12.20;3.60;;;;;;;19.91;50.07;98980.67;135425;1279;22526;-62
2023/06/13 08:36:04;;;;;;;11.70;3.60;;;;;;;19.77;50.81;98976.10;135398;1279;22565;-62
2023/06/13 08:39:07;;;;;;;9.00;3.00;;;;;;;19.77;49.12;98977.71;135415;1279;22554;-62
2023/06/13 08:42:10;;;;;;;10.70;3.30;;;;;;;19.43;49.21;98978.18;135415;1279;22569;-62
2023/06/13 08:45:12;;;;;;;13.50;4.30;;;;;;;19.34;49.62;98976.86;135408;1279;22610;-62
2023/06/13 08:48:15;;;;;;;12.20;3.70;;;;;;;19.33;50.77;98978.54;135435;1279;22540;-62
2023/06/13 08:51:17;;;;;;;16.90;4.20;;;;;;;19.64;51.28;98976.45;135447;1279;22560;-62
2023/06/13 08:54:20;;;;;;;11.80;3.60;;;;;;;19.90;50.26;98978.33;135382;1279;25488;-62
2023/06/13 08:57:22;;;;;;;13.40;4.50;;;;;;;19.87;49.04;98980.56;135420;1262;22551;-62
2023/06/13 09:00:24;;;;;;;17.80;4.30;;;;;;;19.91;49.58;98984.05;135386;1279;22541;-62
2023/06/13 09:03:28;;;;;;;38.80;13.60;;;;;;;20.00;49.33;98985.86;135416;1264;22520;-62
2023/06/13 09:06:33;;;;;;;52.80;20.70;;;;;;;20.15;50.07;98988.61;135431;1279;22555;-62
2023/06/13 09:09:35;;;;;;;22.00;7.00;;;;;;;20.30;48.17;98982.39;135411;1279;22557;-62
2023/06/13 09:12:38;;;;;;;21.40;7.10;;;;;;;20.18;48.46;98988.84;135447;1279;22530;-62
2023/06/13 09:15:40;;;;;;;15.80;4.60;;;;;;;20.16;48.67;98990.27;135445;1279;22523;-62
2023/06/13 09:18:43;;;;;;;13.30;4.30;;;;;;;20.13;47.25;98985.96;135400;1279;26631;-62
2023/06/13 09:21:45;;;;;;;16.60;4.50;;;;;;;19.96;48.25;98983.92;135408;1279;22526;-62
2023/06/13 09:24:48;;;;;;;17.60;5.60;;;;;;;19.84;48.46;98982.44;135415;1279;22560;-62
2023/06/13 09:27:50;;;;;;;16.50;4.90;;;;;;;19.82;49.05;98982.45;135444;1279;22534;-62
2023/06/13 09:30:53;;;;;;;13.10;3.90;;;;;;;19.88;48.44;98980.27;135441;1279;22566;-62
2023/06/13 09:33:55;;;;;;;8.10;2.90;;;;;;;19.81;47.57;98980.38;135444;1279;22548;-62
2023/06/13 09:36:57;;;;;;;10.70;3.40;;;;;;;19.61;47.74;98981.56;135434;1279;25885;-62
2023/06/13 09:40:00;;;;;;;15.90;4.10;;;;;;;19.59;48.27;98980.52;135432;1279;22529;-63
2023/06/13 09:43:03;;;;;;;11.80;3.50;;;;;;;19.68;48.37;98974.82;135469;1279;22547;-63
2023/06/13 09:46:05;;;;;;;8.20;3.10;;;;;;;19.80;47.99;98974.29;135455;1262;22551;-62
2023/06/13 09:49:08;;;;;;;8.60;2.90;;;;;;;19.94;46.44;98972.59;135421;1279;22467;-62
2023/06/13 09:52:10;;;;;;;10.10;3.40;;;;;;;19.91;47.63;98973.42;135470;1258;22556;-62
2023/06/13 09:55:12;;;;;;;8.60;3.10;;;;;;;19.96;46.41;98969.54;135465;1279;22538;-62
2023/06/13 09:58:15;;;;;;;11.80;3.60;;;;;;;20.02;48.08;98969.81;135461;1279;22534;-62
2023/06/13 10:01:18;;;;;;;13.60;4.20;;;;;;;20.31;47.95;98968.25;135509;1279;22562;-62
2023/06/13 10:04:23;;;;;;;13.40;3.80;;;;;;;20.63;47.58;98965.36;135490;1279;22530;-63
2023/06/13 10:07:25;;;;;;;21.90;7.40;;;;;;;20.78;46.54;98959.63;135510;1279;22673;-62
2023/06/13 10:10:28;;;;;;;12.00;3.90;;;;;;;20.99;45.62;98962.34;135481;1262;24289;-62
2023/06/13 10:13:30;;;;;;;8.70;3.50;;;;;;;21.24;45.09;98957.11;135508;1279;22547;-62
2023/06/13 10:16:32;;;;;;;10.40;3.20;;;;;;;21.50;45.61;98951.80;135526;1279;25393;-62
2023/06/13 10:19:35;;;;;;;10.10;3.20;;;;;;;21.94;45.74;98953.53;135440;1259;22629;-62
2023/06/13 10:22:37;;;;;;;9.70;3.00;;;;;;;22.39;44.89;98946.96;135411;1278;22535;-63
2023/06/13 10:25:40;;;;;;;9.10;3.10;;;;;;;22.68;43.73;98950.14;135386;1279;22536;-63
2023/06/13 10:28:43;;;;;;;10.60;3.50;;;;;;;22.87;43.41;98943.23;135376;1262;22536;-62
2023/06/13 10:31:45;;;;;;;11.50;3.50;;;;;;;22.94;43.31;98938.51;135385;1262;22639;-63
2023/06/13 10:34:48;;;;;;;9.80;3.50;;;;;;;23.16;43.46;98940.11;135405;1279;22549;-63
2023/06/13 10:37:53;;;;;;;10.90;3.30;;;;;;;23.19;41.27;98937.96;135353;1279;22571;-62
2023/06/13 10:40:55;;;;;;;11.80;3.80;;;;;;;22.75;41.57;98937.64;135403;1279;22609;-61
2023/06/13 10:43:58;;;;;;;14.50;4.80;;;;;;;22.30;42.36;98939.95;135389;1279;22668;-62
2023/06/13 10:47:00;;;;;;;14.90;4.50;;;;;;;21.96;42.81;98941.09;135352;1279;24218;-62
2023/06/13 10:50:03;;;;;;;11.50;3.80;;;;;;;21.70;43.36;98942.06;135383;1279;22533;-61
2023/06/13 10:53:05;;;;;;;13.60;4.00;;;;;;;21.47;43.28;98937.52;135452;1262;22546;-61
2023/06/13 10:56:08;;;;;;;11.60;3.40;;;;;;;21.57;44.62;98934.88;135448;1279;22533;-61
2023/06/13 10:59:11;;;;;;;10.10;3.30;;;;;;;21.73;42.53;98932.83;135450;1279;22536;-61
2023/06/13 11:02:13;;;;;;;8.50;3.10;;;;;;;21.57;42.03;98928.44;135457;1279;22556;-61
2023/06/13 11:05:16;;;;;;;7.30;3.00;;;;;;;21.71;42.80;98931.58;135422;1279;22521;-62
2023/06/13 11:08:18;;;;;;;11.00;3.40;;;;;;;22.09;43.19;98930.12;135414;1262;22533;-62
2023/06/13 11:11:21;;;;;;;7.40;3.10;;;;;;;22.46;42.99;98928.66;135427;1279;22645;-61
2023/06/13 11:14:23;;;;;;;8.30;2.90;;;;;;;22.80;41.55;98925.70;135436;1279;22559;-62
2023/06/13 11:17:26;;;;;;;6.90;2.80;;;;;;;22.94;41.77;98922.55;135392;1279;22555;-62
2023/06/13 11:20:28;;;;;;;6.70;2.50;;;;;;;23.13;41.43;98922.39;135404;1279;23706;-61
2023/06/13 11:23:30;;;;;;;7.70;2.50;;;;;;;23.24;41.77;98917.61;135444;1279;22535;-62
2023/06/13 11:26:33;;;;;;;7.90;2.30;;;;;;;23.47;41.17;98917.64;135443;1279;22537;-62
2023/06/13 11:29:36;;;;;;;8.80;2.50;;;;;;;23.23;38.90;98918.38;135437;1279;22551;-62
2023/06/13 11:32:38;;;;;;;9.10;2.20;;;;;;;22.59;40.12;98922.77;135427;1279;22538;-62
2023/06/13 11:35:41;;;;;;;6.40;2.30;;;;;;;22.08;39.96;98923.73;135429;1279;23001;-62
2023/06/13 11:38:43;;;;;;;6.10;2.70;;;;;;;21.85;41.57;98921.42;135460;1279;22551;-62
2023/06/13 11:41:45;;;;;;;7.20;2.40;;;;;;;22.14;41.95;98920.17;135438;1279;22558;-63
2023/06/13 11:44:48;;;;;;;7.70;2.80;;;;;;;22.17;41.80;98920.29;135444;1279;23810;-62
2023/06/13 11:47:51;;;;;;;8.10;3.00;;;;;;;22.33;41.65;98916.73;135412;1279;22549;-62
2023/06/13 11:50:53;;;;;;;6.70;2.60;;;;;;;22.31;41.36;98917.20;135419;1279;22655;-62
2023/06/13 11:53:56;;;;;;;10.20;2.70;;;;;;;22.44;41.85;98916.71;135463;1279;22554;-62
2023/06/13 11:56:58;;;;;;;9.10;2.70;;;;;;;22.71;42.17;98907.55;135449;1279;22571;-62
2023/06/13 12:00:01;;;;;;;7.80;2.50;;;;;;;23.29;41.72;98909.19;135402;1279;22550;-63
2023/06/13 12:03:05;;;;;;;6.80;2.60;;;;;;;23.98;41.50;98905.60;135392;1279;22543;-62
2023/06/13 12:06:08;;;;;;;8.40;3.00;;;;;;;24.51;39.73;98900.01;135410;1279;22527;-63
2023/06/13 12:09:10;;;;;;;6.70;2.50;;;;;;;24.65;37.83;98898.21;135409;1279;22529;-63
2023/06/13 12:12:13;;;;;;;7.60;3.00;;;;;;;24.20;39.12;98902.70;135457;1279;25482;-63
2023/06/13 12:15:15;;;;;;;6.80;2.40;;;;;;;24.19;39.88;98901.80;135463;1279;23026;-63
2023/06/13 12:18:17;;;;;;;9.00;2.50;;;;;;;24.18;39.13;98903.85;135481;1280;22523;-62
2023/06/13 12:21:20;;;;;;;7.00;2.40;;;;;;;24.00;38.41;98905.42;135425;1262;22527;-63
2023/06/13 12:24:25;;;;;;;7.70;2.00;;;;;;;23.55;37.90;98902.83;135443;1279;24217;-63
2023/06/13 12:27:28;;;;;;;5.80;2.20;;;;;;;23.19;38.55;98900.70;135415;1279;22995;-62
2023/06/13 12:30:31;;;;;;;8.40;2.20;;;;;;;22.75;38.77;98896.11;135498;1279;22536;-62
2023/06/13 12:33:35;;;;;;;7.50;2.20;;;;;;;22.46;39.75;98896.77;135465;1262;22549;-62
2023/06/13 12:36:40;;;;;;;5.90;2.00;;;;;;;22.28;40.12;98896.50;135470;1279;22541;-62
2023/06/13 12:39:45;;;;;;;6.90;2.10;;;;;;;21.96;40.07;98894.48;135522;1262;22529;-62
2023/06/13 12:42:47;;;;;;;6.30;2.10;;;;;;;21.62;39.72;98897.86;135453;1262;22653;-62
2023/06/13 12:45:50;;;;;;;7.90;2.20;;;;;;;21.29;40.07;98891.92;135429;1280;22527;-62
2023/06/13 12:48:52;;;;;;;4.90;1.90;;;;;;;21.15;41.24;98898.47;135403;1280;22529;-62
2023/06/13 12:51:55;;;;;;;11.20;2.10;;;;;;;21.31;41.47;98897.19;135447;1280;24376;-62
2023/06/13 12:54:57;;;;;;;4.80;2.20;;;;;;;21.43;41.81;98893.63;135435;1280;22548;-62
2023/06/13 12:57:59;;;;;;;8.30;1.90;;;;;;;21.61;42.04;98893.13;135402;1280;22569;-62
2023/06/13 13:01:02;;;;;;;5.90;2.00;;;;;;;21.61;41.68;98892.45;135444;1279;22539;-62
2023/06/13 13:04:04;;;;;;;9.60;2.30;;;;;;;21.43;41.39;98896.77;135444;1280;22536;-62
2023/06/13 13:07:07;;;;;;;8.50;2.20;;;;;;;21.31;41.06;98890.77;135440;1280;22533;-63
2023/06/13 13:10:09;;;;;;;6.40;1.80;;;;;;;21.21;41.47;98895.02;135480;1279;22569;-62
2023/06/13 13:13:12;;;;;;;7.00;2.00;;;;;;;21.20;41.35;98892.29;135480;1280;22544;-62
2023/06/13 13:16:15;;;;;;;7.60;2.00;;;;;;;21.22;41.05;98893.50;135469;1279;22527;-62
2023/06/13 13:19:17;;;;;;;4.30;1.80;;;;;;;21.19;41.30;98889.92;135446;1279;25527;-62
2023/06/13 13:22:20;;;;;;;3.60;1.60;;;;;;;21.08;41.78;98889.64;135484;1279;22529;-63
2023/06/13 13:25:22;;;;;;;5.90;1.80;;;;;;;21.27;42.12;98889.04;135403;1279;24223;-63
2023/06/13 13:28:25;;;;;;;5.90;1.50;;;;;;;21.53;42.61;98887.91;135467;1280;22558;-62
2023/06/13 13:31:27;;;;;;;5.00;1.50;;;;;;;21.66;40.77;98886.04;135473;1280;22552;-63
2023/06/13 13:34:30;;;;;;;5.80;1.50;;;;;;;21.46;40.07;98880.33;135510;1279;22615;-63
2023/06/13 13:37:32;;;;;;;6.10;1.60;;;;;;;21.20;41.74;98888.85;135457;1279;22542;-63
2023/06/13 13:40:35;;;;;;;4.60;1.80;;;;;;;21.23;41.88;98885.23;135432;1279;22574;-62
2023/06/13 13:43:37;;;;;;;4.50;1.60;;;;;;;21.25;42.34;98882.15;135464;1273;22534;-62
2023/06/13 13:46:40;;;;;;;4.00;1.30;;;;;;;21.23;42.04;98880.11;135469;1279;23692;-62
2023/06/13 13:49:42;;;;;;;6.70;1.50;;;;;;;21.16;42.45;98876.30;135466;1280;22526;-62
2023/06/13 13:52:45;;;;;;;10.20;2.00;;;;;;;21.19;42.44;98872.08;135504;1279;22539;-62
2023/06/13 13:55:47;;;;;;;9.20;2.00;;;;;;;21.09;42.00;98871.34;135505;1279;22542;-62
2023/06/13 13:58:49;;;;;;;5.60;1.90;;;;;;;20.97;42.33;98863.73;135497;1279;22530;-62
2023/06/13 14:01:52;;;;;;;5.90;1.50;;;;;;;21.26;42.89;98868.19;135482;1258;24222;-62
2023/06/13 14:04:54;;;;;;;7.40;1.30;;;;;;;21.66;42.52;98859.23;135447;1262;22530;-62
2023/06/13 14:07:57;;;;;;;10.00;2.00;;;;;;;22.07;42.59;98859.05;135515;1280;22510;-62
2023/06/13 14:10:59;;;;;;;7.20;1.80;;;;;;;22.42;41.54;98857.09;135477;1280;22548;-62
2023/06/13 14:14:02;;;;;;;7.10;2.10;;;;;;;22.62;41.09;98859.33;135498;1279;22770;-62